Orangeburg, SC

4:35 PM EST on January 31, 2015 (GMT -0500)
Columbia Metro | Change Station
CLOSE
Current Station
Airport
Location: Columbia,
Elevation: 223 ft
Nearby Weather Stations

Elev 223 ft 33.94 °N, 81.12 °W | Updated 39 minutes ago

Clear
Clear
55 °F
Feels Like 55 °F
N
0
Wind Variable Wind from North

Today
High -- | Low -- °F
--% Chance of Precip.
Yesterday
High -- | Low -- °F
Precip. -- in
7:20 AM 5:53 PM
Waxing Gibbous, 91% visible
Pressure 30.32 in
Visibility 10.0 miles
Clouds Few 15000 ft
Scattered Clouds 24000 ft
Dew Point 13 °F
Humidity 19%
Rainfall 0.00 in
Snow Depth Not available.
UV 1 out of 12
Pollen 3.50 out of 12
Air Quality Not available.
Flu Activity Not available.
METAR KCAE 312056Z 00000KT 10SM FEW150 SCT240 13/M11 A3031 RMK AO2 SLP265 T01281106 56019

More Conditions Fewer Conditions

Pressure 30.32 in
Visibility 10.0 miles
Clouds Few 15000 ft
Scattered Clouds 24000 ft
Dew Point 13 °F
Humidity 19%
Rainfall 0.00 in
Snow Depth Not available.
UV 1 out of 12
Pollen 3.50 out of 12
Air Quality Not available.
Flu Activity Not available.
METAR KCAE 312056Z 00000KT 10SM FEW150 SCT240 13/M11 A3031 RMK AO2 SLP265 T01281106 56019

More Conditions Fewer Conditions

10-Day Weather Forecast

Almanac

Astronomy

Jan. 31, 2015 Rise Set
Actual Time
Civil Twilight
Nautical Twilight
Astronomical Twilight
Moon
Length of Visible Light
Length of Day
Tomorrow will be .
, % of the Moon is Illuminated

Today's Extremes

State Highs State Lows

Community

WunderPhotos

Upload Photos

1,792,210 photos uploaded!

WunderBlogs® & News

Nearby

Air Quality

  Air Quality AQ Index Pollutant
Not available.

Snow Depth

Station Depth Elevation

Earthquake Activity

City Distance Mag. Time & Date
Minimum magnitude displayed is 2.5.

Coastal Water Temperatures

Place Temperature

Nearby Weather Stations